National Weather Service United States Department of Commerce
Click Here for Latest Airport Weather Warnings
 
Latest Huntsville TAF


000
FTUS44 KHUN 291727
TAFHSV
TAF
KHSV 291727Z 2918/3018 27009G16KT P6SM BKN250
FM300200 VRB04KT P6SM SCT120 BKN250
FM301200 33006KT P6SM BKN100=

Latest Muscle Shoals TAF


000
FTUS44 KHUN 291727
TAFMSL
TAF
KMSL 291727Z 2918/3018 29008G17KT P6SM SKC
FM300100 VRB03KT P6SM SCT120 OVC250
FM301200 33006KT P6SM BKN100=


Back to Main Huntsville Weather Forecast Office Page